TED STEVENS ANCHORAGE INTL

PANC (ANC)
Anchorage, Alaska
Towered

Vatsim Metar:
PANC 240753Z VRB03KT 10SM SCT080 BKN190 06/01 A2926 RMK AO2 SLP911 T00560011

No ATC Online

Traffic

Inbound:
Ident
Type
Name
ETA
Phase
ASA142
B739
Kwangmyung Seo RKSI
09:10 Z
Descent

Outbound:
Ident
Type
Name
Destination
Phase
SAA209
A359
Thendo Mudau FAOR
KTPA
Climb